Time;durP1;ratioP1;P1;durP2;ratioP2;P2;SDS_P1;SDS_P2;PMS_P1;PMS_P2;Temp;Humidity;BMP_temperature;BMP_pressure;BME280_temperature;BME280_humidity;BME280_pressure;Samples;Min_cycle;Max_cycle;Signal;HPM_P1;HPM_P2
2021/10/22 00:01:09;;;;;;;;;;;12.90;99.90;;;;;;4997216;28;774;-48
2021/10/22 00:03:35;;;;;;;;;;;12.90;99.90;;;;;;4996866;28;1899;-48
2021/10/22 00:06:01;;;;;;;;;;;12.90;99.90;;;;;;4997041;28;951;-48
2021/10/22 00:08:27;;;;;;;;;;;12.90;99.90;;;;;;4997660;28;1003;-48
2021/10/22 00:10:54;;;;;;;;;;;12.90;99.90;;;;;;4984890;28;1182;-48
2021/10/22 00:13:22;;;;;;;;;;;12.90;99.90;;;;;;4977527;28;839;-48
2021/10/22 00:15:50;;;;;;;;;;;12.90;99.90;;;;;;4977240;28;861;-48
2021/10/22 00:18:19;;;;;;;;;;;12.90;99.90;;;;;;4960823;28;1076;-48
2021/10/22 00:20:46;;;;;;;;;;;12.90;99.90;;;;;;4977611;28;1032;-49
2021/10/22 00:23:12;;;;;;;;;;;12.90;99.90;;;;;;4976840;28;1902;-48
2021/10/22 00:25:38;;;;;;;;;;;12.90;99.90;;;;;;4977658;28;853;-48
2021/10/22 00:28:04;;;;;;;;;;;12.90;99.90;;;;;;4980103;28;813;-48
2021/10/22 00:30:30;;;;;;;;;;;12.80;99.90;;;;;;4984081;28;928;-48
2021/10/22 00:32:55;;;;;;;;;;;12.80;99.90;;;;;;4983782;28;971;-48
2021/10/22 00:35:23;;;;;;;;;;;12.80;99.90;;;;;;4984039;28;750;-48
2021/10/22 00:37:53;;;;;;;;;;;12.80;99.90;;;;;;4983838;28;818;-48
2021/10/22 00:40:22;;;;;;;;;;;12.80;99.90;;;;;;4984781;28;978;-48
2021/10/22 00:42:55;;;;;;;;;;;12.80;99.90;;;;;;5003048;28;1962;-48
2021/10/22 00:45:22;;;;;;;;;;;12.80;99.90;;;;;;5003146;28;1082;-48
2021/10/22 00:47:50;;;;;;;;;;;12.80;99.90;;;;;;5003401;28;809;-48
2021/10/22 00:50:16;;;;;;;;;;;12.80;99.90;;;;;;5002967;28;850;-48
2021/10/22 00:52:44;;;;;;;;;;;12.80;99.90;;;;;;5002946;28;860;-48
2021/10/22 00:55:12;;;;;;;;;;;12.80;99.90;;;;;;5003324;28;902;-48
2021/10/22 00:57:39;;;;;;;;;;;12.80;99.90;;;;;;5003341;28;821;-48
2021/10/22 01:00:06;;;;;;;;;;;12.80;99.90;;;;;;5003074;28;940;-48
2021/10/22 01:02:34;;;;;;;;;;;12.80;99.90;;;;;;5003360;28;1960;-48
2021/10/22 01:05:00;;;;;;;;;;;12.80;99.90;;;;;;5003249;28;941;-48
2021/10/22 01:07:27;;;;;;;;;;;12.80;99.90;;;;;;5002717;28;1005;-48
2021/10/22 01:09:54;;;;;;;;;;;12.80;99.90;;;;;;4998948;28;861;-48
2021/10/22 01:12:22;;;;;;;;;;;12.80;99.90;;;;;;4983510;28;1240;-48
2021/10/22 01:14:51;;;;;;;;;;;12.70;99.90;;;;;;4983823;28;853;-48
2021/10/22 01:17:34;;;;;;;;;;;12.80;99.90;;;;;;4983150;28;932;-48
2021/10/22 01:20:00;;;;;;;;;;;12.80;99.90;;;;;;4983580;28;904;-48
2021/10/22 01:22:27;;;;;;;;;;;12.80;99.90;;;;;;4983149;28;1887;-48
2021/10/22 01:24:54;;;;;;;;;;;12.80;99.90;;;;;;4983353;28;849;-48
2021/10/22 01:27:20;;;;;;;;;;;12.80;99.90;;;;;;4966595;28;1343;-48
2021/10/22 01:29:46;;;;;;;;;;;12.80;99.90;;;;;;4964127;28;1000;-48
2021/10/22 01:32:12;;;;;;;;;;;12.80;99.90;;;;;;4963825;28;782;-48
2021/10/22 01:34:38;;;;;;;;;;;12.80;99.90;;;;;;4963877;28;878;-48
2021/10/22 01:37:04;;;;;;;;;;;12.80;99.90;;;;;;4963837;28;779;-48
2021/10/22 01:39:30;;;;;;;;;;;12.80;99.90;;;;;;4962849;28;898;-49
2021/10/22 01:41:57;;;;;;;;;;;12.80;99.90;;;;;;4993896;28;1141;-48
2021/10/22 01:44:24;;;;;;;;;;;12.80;99.90;;;;;;4999700;28;1903;-48
2021/10/22 01:46:52;;;;;;;;;;;12.80;99.90;;;;;;4999434;28;892;-48
2021/10/22 01:49:18;;;;;;;;;;;12.80;99.90;;;;;;4999683;28;987;-48
2021/10/22 01:51:44;;;;;;;;;;;12.80;99.90;;;;;;4999605;28;841;-48
2021/10/22 01:54:10;;;;;;;;;;;12.80;99.90;;;;;;4999689;28;872;-48
2021/10/22 01:56:36;;;;;;;;;;;12.80;99.90;;;;;;4999567;28;1053;-48
2021/10/22 01:59:02;;;;;;;;;;;12.80;99.90;;;;;;4999602;28;807;-48
2021/10/22 02:01:30;;;;;;;;;;;12.70;99.90;;;;;;4991038;28;1352;-48
2021/10/22 02:03:57;;;;;;;;;;;12.80;99.90;;;;;;4980595;28;1984;-48
2021/10/22 02:06:24;;;;;;;;;;;12.80;99.90;;;;;;4980013;28;856;-48
2021/10/22 02:08:51;;;;;;;;;;;12.80;99.90;;;;;;4995753;28;1165;-48
2021/10/22 02:11:17;;;;;;;;;;;12.70;99.90;;;;;;4982929;28;1137;-48
2021/10/22 02:13:43;;;;;;;;;;;12.70;99.90;;;;;;4979765;28;818;-48
2021/10/22 02:16:09;;;;;;;;;;;12.70;99.90;;;;;;4979660;28;948;-48
2021/10/22 02:18:35;;;;;;;;;;;12.80;99.90;;;;;;4979483;28;765;-48
2021/10/22 02:21:01;;;;;;;;;;;12.70;99.90;;;;;;4995664;28;1161;-48
2021/10/22 02:23:28;;;;;;;;;;;12.70;99.90;;;;;;4998907;28;1910;-48
2021/10/22 02:25:55;;;;;;;;;;;12.70;99.90;;;;;;4999080;28;829;-48
2021/10/22 02:28:22;;;;;;;;;;;12.70;99.90;;;;;;4999195;28;859;-48
2021/10/22 02:30:48;;;;;;;;;;;12.70;99.90;;;;;;4998999;28;857;-48
2021/10/22 02:33:14;;;;;;;;;;;12.70;99.90;;;;;;4979946;28;1324;-48
2021/10/22 02:35:40;;;;;;;;;;;12.70;99.90;;;;;;4979477;28;826;-48
2021/10/22 02:38:06;;;;;;;;;;;12.70;99.90;;;;;;4987358;28;1196;-48
2021/10/22 02:40:32;;;;;;;;;;;12.70;99.90;;;;;;4989355;28;896;-48
2021/10/22 02:42:59;;;;;;;;;;;12.70;99.90;;;;;;4979411;28;1995;-48
2021/10/22 02:45:25;;;;;;;;;;;12.70;99.90;;;;;;4979074;28;755;-48
2021/10/22 02:47:51;;;;;;;;;;;12.70;99.90;;;;;;4979166;28;1033;-48
2021/10/22 02:50:18;;;;;;;;;;;12.70;99.90;;;;;;4986874;28;1220;-48
2021/10/22 02:52:44;;;;;;;;;;;12.70;99.90;;;;;;4997440;28;932;-48
2021/10/22 02:55:10;;;;;;;;;;;12.70;99.90;;;;;;4998289;28;873;-48
2021/10/22 02:57:36;;;;;;;;;;;12.60;99.90;;;;;;4998196;28;1093;-48
2021/10/22 03:00:04;;;;;;;;;;;12.60;99.90;;;;;;4998165;28;877;-48
2021/10/22 03:02:30;;;;;;;;;;;12.60;99.90;;;;;;4998063;28;1910;-48
2021/10/22 03:04:57;;;;;;;;;;;12.60;99.90;;;;;;4998390;28;851;-48
2021/10/22 03:07:23;;;;;;;;;;;12.60;99.90;;;;;;4998135;28;899;-48
2021/10/22 03:09:49;;;;;;;;;;;12.60;99.90;;;;;;4994545;28;861;-48
2021/10/22 03:12:15;;;;;;;;;;;12.60;99.90;;;;;;4978381;28;1496;-48
2021/10/22 03:14:41;;;;;;;;;;;12.60;99.90;;;;;;4978919;28;1010;-48
2021/10/22 03:17:07;;;;;;;;;;;12.60;99.90;;;;;;4978361;28;1212;-48
2021/10/22 03:19:34;;;;;;;;;;;12.60;99.90;;;;;;4978641;28;774;-48
2021/10/22 03:22:00;;;;;;;;;;;12.60;99.90;;;;;;4978261;28;813;-48
2021/10/22 03:24:27;;;;;;;;;;;12.60;99.90;;;;;;4978222;28;1899;-48
2021/10/22 03:26:54;;;;;;;;;;;12.60;99.90;;;;;;4987298;28;1157;-48
2021/10/22 03:29:21;;;;;;;;;;;12.60;99.90;;;;;;4996595;28;1085;-48
2021/10/22 03:31:47;;;;;;;;;;;12.60;99.90;;;;;;4997377;28;882;-48
2021/10/22 03:34:14;;;;;;;;;;;12.60;99.90;;;;;;4997737;28;870;-48
2021/10/22 03:36:40;;;;;;;;;;;12.60;99.90;;;;;;4967032;28;1437;-48
2021/10/22 03:39:07;;;;;;;;;;;12.60;99.90;;;;;;4959035;28;973;-48
2021/10/22 03:41:34;;;;;;;;;;;12.60;99.90;;;;;;4976016;28;747;-48
2021/10/22 03:44:00;;;;;;;;;;;12.50;99.90;;;;;;4978953;28;1899;-48
2021/10/22 03:46:27;;;;;;;;;;;12.50;99.90;;;;;;4977971;28;802;-48
2021/10/22 03:48:53;;;;;;;;;;;12.50;99.90;;;;;;4977874;28;871;-48
2021/10/22 03:51:19;;;;;;;;;;;12.50;99.90;;;;;;4977811;28;786;-48
2021/10/22 03:53:45;;;;;;;;;;;12.50;99.90;;;;;;4977647;28;842;-48
2021/10/22 03:56:11;;;;;;;;;;;12.50;99.90;;;;;;4978055;28;838;-48
2021/10/22 03:58:37;;;;;;;;;;;12.50;99.90;;;;;;4978021;28;789;-48
2021/10/22 04:01:04;;;;;;;;;;;12.50;99.90;;;;;;4977681;28;842;-48
2021/10/22 04:03:30;;;;;;;;;;;12.50;99.90;;;;;;4977696;28;1903;-48
2021/10/22 04:05:56;;;;;;;;;;;12.50;99.90;;;;;;4977625;28;837;-48
2021/10/22 04:08:22;;;;;;;;;;;12.50;99.90;;;;;;4977672;28;1511;-48
2021/10/22 04:10:48;;;;;;;;;;;12.50;99.90;;;;;;4978317;28;1213;-48
2021/10/22 04:13:14;;;;;;;;;;;12.50;99.90;;;;;;4977822;28;798;-48
2021/10/22 04:15:41;;;;;;;;;;;12.50;99.90;;;;;;4977313;28;793;-48
2021/10/22 04:18:07;;;;;;;;;;;12.50;99.90;;;;;;4978026;28;806;-48
2021/10/22 04:20:35;;;;;;;;;;;12.50;99.90;;;;;;4978019;28;865;-48
2021/10/22 04:23:02;;;;;;;;;;;12.50;99.90;;;;;;4977499;28;1915;-48
2021/10/22 04:25:29;;;;;;;;;;;12.50;99.90;;;;;;4977598;28;1010;-48
2021/10/22 04:27:55;;;;;;;;;;;12.50;99.90;;;;;;4994548;28;1196;-48
2021/10/22 04:30:22;;;;;;;;;;;12.50;99.90;;;;;;4995529;28;970;-48
2021/10/22 04:32:48;;;;;;;;;;;12.50;99.90;;;;;;4997364;28;1006;-48
2021/10/22 04:35:14;;;;;;;;;;;12.50;99.90;;;;;;4997028;28;857;-48
2021/10/22 04:40:35;;;;;;;;;;;12.50;99.90;;;;;;4988782;28;813;-48
2021/10/22 04:43:20;;;;;;;;;;;12.50;99.90;;;;;;4977466;28;1968;-48
2021/10/22 04:45:50;;;;;;;;;;;12.50;99.90;;;;;;4977003;28;795;-48
2021/10/22 04:48:16;;;;;;;;;;;12.50;99.90;;;;;;4977087;28;873;-48
2021/10/22 04:50:46;;;;;;;;;;;12.50;99.90;;;;;;4977196;28;870;-48
2021/10/22 04:53:12;;;;;;;;;;;12.50;99.90;;;;;;4977180;28;920;-48
2021/10/22 04:55:39;;;;;;;;;;;12.50;99.90;;;;;;4977301;28;948;-48
2021/10/22 04:58:07;;;;;;;;;;;12.60;99.90;;;;;;4977301;28;806;-48
2021/10/22 05:00:35;;;;;;;;;;;12.60;99.90;;;;;;4977309;28;980;-48
2021/10/22 05:03:01;;;;;;;;;;;12.70;99.90;;;;;;4976232;28;1902;-48
2021/10/22 05:05:27;;;;;;;;;;;12.90;99.90;;;;;;4976232;28;758;-48
2021/10/22 05:07:53;;;;;;;;;;;13.10;99.90;;;;;;4977333;28;1015;-48
2021/10/22 05:10:20;;;;;;;;;;;13.20;99.90;;;;;;4976698;28;1050;-48
2021/10/22 05:12:47;;;;;;;;;;;13.40;99.90;;;;;;4977916;28;1159;-48
2021/10/22 05:15:14;;;;;;;;;;;13.50;99.90;;;;;;4978487;28;809;-48
2021/10/22 05:17:40;;;;;;;;;;;13.60;99.90;;;;;;4981558;28;995;-47
2021/10/22 05:20:07;;;;;;;;;;;13.80;99.90;;;;;;4980623;28;814;-47
2021/10/22 05:22:36;;;;;;;;;;;13.90;99.90;;;;;;4980593;28;810;-48
2021/10/22 05:25:06;;;;;;;;;;;14.00;99.90;;;;;;4980003;28;1906;-48
2021/10/22 05:27:32;;;;;;;;;;;14.10;99.90;;;;;;4993435;28;1169;-48
2021/10/22 05:29:58;;;;;;;;;;;14.20;99.90;;;;;;5000154;28;841;-48
2021/10/22 05:32:24;;;;;;;;;;;14.20;99.90;;;;;;4999951;28;926;-48
2021/10/22 05:34:51;;;;;;;;;;;14.30;99.90;;;;;;5000062;28;1005;-48
2021/10/22 05:37:18;;;;;;;;;;;14.40;99.90;;;;;;4999509;28;794;-48
2021/10/22 05:39:46;;;;;;;;;;;14.40;99.90;;;;;;4997132;28;838;-48
2021/10/22 05:42:15;;;;;;;;;;;14.40;99.90;;;;;;4980768;28;879;-48
2021/10/22 05:44:40;;;;;;;;;;;14.40;99.90;;;;;;4978404;28;1911;-48
2021/10/22 05:47:06;;;;;;;;;;;14.40;99.90;;;;;;4980036;28;868;-48
2021/10/22 05:49:32;;;;;;;;;;;14.50;99.90;;;;;;4980894;28;1196;-48
2021/10/22 05:51:58;;;;;;;;;;;14.40;99.90;;;;;;4980216;28;854;-48
2021/10/22 05:54:24;;;;;;;;;;;14.50;99.90;;;;;;4979756;28;986;-48
2021/10/22 05:56:50;;;;;;;;;;;14.40;99.90;;;;;;4980178;28;812;-48
2021/10/22 05:59:17;;;;;;;;;;;14.50;99.90;;;;;;4980121;28;862;-48
2021/10/22 06:01:43;;;;;;;;;;;14.40;99.90;;;;;;4979806;28;781;-48
2021/10/22 06:04:10;;;;;;;;;;;14.40;99.90;;;;;;4980173;28;1915;-48
2021/10/22 06:06:36;;;;;;;;;;;14.40;99.90;;;;;;4979737;28;858;-48
2021/10/22 06:09:03;;;;;;;;;;;14.30;99.90;;;;;;4979970;28;1074;-48
2021/10/22 06:11:29;;;;;;;;;;;14.30;99.90;;;;;;4979448;28;1065;-48
2021/10/22 06:13:55;;;;;;;;;;;14.20;99.90;;;;;;4979841;28;872;-48
2021/10/22 06:16:23;;;;;;;;;;;14.20;99.90;;;;;;4979427;28;849;-48
2021/10/22 06:18:53;;;;;;;;;;;14.20;99.90;;;;;;4979414;28;858;-48
2021/10/22 06:21:25;;;;;;;;;;;14.20;99.90;;;;;;4980031;28;830;-48
2021/10/22 06:23:56;;;;;;;;;;;14.10;99.90;;;;;;4978090;28;1973;-48
2021/10/22 06:26:25;;;;;;;;;;;14.10;99.90;;;;;;4983717;28;1133;-48
2021/10/22 06:28:52;;;;;;;;;;;14.00;99.90;;;;;;4998940;28;885;-48
2021/10/22 06:31:23;;;;;;;;;;;14.00;99.90;;;;;;4998773;28;865;-48
2021/10/22 06:33:51;;;;;;;;;;;14.00;99.90;;;;;;4998959;28;780;-48
2021/10/22 06:36:18;;;;;;;;;;;14.00;99.90;;;;;;4999103;28;818;-48
2021/10/22 06:38:44;;;;;;;;;;;13.90;99.90;;;;;;4998607;28;814;-48
2021/10/22 06:41:10;;;;;;;;;;;13.90;99.90;;;;;;4968950;28;1006;-48
2021/10/22 06:43:37;;;;;;;;;;;13.90;99.90;;;;;;4959879;29;1899;-48
2021/10/22 06:46:03;;;;;;;;;;;13.90;99.90;;;;;;4959763;28;850;-48
2021/10/22 06:48:29;;;;;;;;;;;13.90;99.90;;;;;;4959566;28;914;-48
2021/10/22 06:50:57;;;;;;;;;;;13.90;99.90;;;;;;4958765;29;747;-48
2021/10/22 06:53:24;;;;;;;;;;;14.20;99.90;;;;;;4960190;28;822;-48
2021/10/22 06:55:52;;;;;;;;;;;14.30;99.90;;;;;;4960237;28;1039;-48
2021/10/22 06:58:19;;;;;;;;;;;14.30;99.90;;;;;;4959742;28;856;-48
2021/10/22 07:00:50;;;;;;;;;;;14.50;99.90;;;;;;4959703;28;801;-48
2021/10/22 07:03:22;;;;;;;;;;;14.50;99.90;;;;;;4960704;28;1910;-48
2021/10/22 07:08:34;;;;;;;;;;;14.10;99.90;;;;;;4959487;28;793;-48
2021/10/22 07:11:00;;;;;;;;;;;14.00;99.90;;;;;;4972323;28;1001;-48
2021/10/22 07:13:27;;;;;;;;;;;14.00;99.90;;;;;;4978708;28;947;-48
2021/10/22 07:15:55;;;;;;;;;;;13.90;99.90;;;;;;4978845;28;817;-48
2021/10/22 07:18:22;;;;;;;;;;;13.90;99.90;;;;;;4978673;28;964;-48
2021/10/22 07:20:50;;;;;;;;;;;13.90;99.90;;;;;;4978395;28;755;-48
2021/10/22 07:23:17;;;;;;;;;;;13.90;99.90;;;;;;4978487;28;1907;-48
2021/10/22 07:25:43;;;;;;;;;;;13.90;99.90;;;;;;4978724;28;1018;-48
2021/10/22 07:28:15;;;;;;;;;;;14.00;99.90;;;;;;4997336;28;1200;-48
2021/10/22 07:30:43;;;;;;;;;;;14.00;99.90;;;;;;4997426;28;1106;-48
2021/10/22 07:33:09;;;;;;;;;;;14.00;99.90;;;;;;4998016;28;924;-48
2021/10/22 07:35:38;;;;;;;;;;;14.00;99.90;;;;;;4997793;28;826;-48
2021/10/22 07:38:09;;;;;;;;;;;14.10;99.90;;;;;;4996682;28;941;-48
2021/10/22 07:40:35;;;;;;;;;;;14.10;99.90;;;;;;4987797;28;1117;-48
2021/10/22 07:43:01;;;;;;;;;;;14.10;99.90;;;;;;4978178;28;1068;-48
2021/10/22 07:45:28;;;;;;;;;;;14.20;99.90;;;;;;4977684;28;1961;-48
2021/10/22 07:47:55;;;;;;;;;;;14.20;99.90;;;;;;4963922;28;1471;-48
2021/10/22 07:50:23;;;;;;;;;;;14.10;99.90;;;;;;4977668;28;1066;-48
2021/10/22 07:52:50;;;;;;;;;;;14.10;99.90;;;;;;4978188;28;898;-48
2021/10/22 07:55:16;;;;;;;;;;;14.10;99.90;;;;;;4989796;28;1141;-48
2021/10/22 07:57:42;;;;;;;;;;;14.10;99.90;;;;;;4997607;28;904;-48
2021/10/22 08:00:09;;;;;;;;;;;14.20;99.90;;;;;;4997139;28;813;-48
2021/10/22 08:02:35;;;;;;;;;;;14.10;99.90;;;;;;4996845;28;965;-47
2021/10/22 08:05:01;;;;;;;;;;;14.20;99.90;;;;;;4997280;28;1911;-47
2021/10/22 08:07:33;;;;;;;;;;;14.40;99.90;;;;;;4985391;28;1192;-47
2021/10/22 08:10:00;;;;;;;;;;;14.40;99.90;;;;;;4977899;28;881;-47
2021/10/22 08:12:28;;;;;;;;;;;14.40;99.90;;;;;;4977399;28;1310;-47
2021/10/22 08:14:55;;;;;;;;;;;14.30;99.90;;;;;;4977565;28;762;-48
2021/10/22 08:17:21;;;;;;;;;;;14.80;99.90;;;;;;4975560;28;1407;-47
2021/10/22 08:20:06;;;;;;;;;;;15.10;99.90;;;;;;4978524;28;1042;-47
2021/10/22 08:22:33;;;;;;;;;;;14.80;99.90;;;;;;4977606;28;873;-47
2021/10/22 08:25:20;;;;;;;;;;;14.60;99.90;;;;;;4995861;28;1968;-47
2021/10/22 08:27:48;;;;;;;;;;;14.60;99.90;;;;;;4997120;28;809;-47
2021/10/22 08:30:16;;;;;;;;;;;14.60;99.90;;;;;;4996723;28;824;-48
2021/10/22 08:32:47;;;;;;;;;;;15.40;99.90;;;;;;4996905;28;1073;-47
2021/10/22 08:35:13;;;;;;;;;;;15.30;99.90;;;;;;4994422;28;1156;-47
2021/10/22 08:37:39;;;;;;;;;;;15.00;99.90;;;;;;4977807;28;1002;-47
2021/10/22 08:40:05;;;;;;;;;;;14.80;99.90;;;;;;4977169;28;892;-47
2021/10/22 08:42:33;;;;;;;;;;;14.60;99.90;;;;;;4977222;28;869;-47
2021/10/22 08:45:01;;;;;;;;;;;14.60;99.90;;;;;;4977413;28;1907;-47
2021/10/22 08:47:30;;;;;;;;;;;14.60;99.90;;;;;;4977589;28;1036;-47
2021/10/22 08:49:58;;;;;;;;;;;14.50;99.90;;;;;;4979926;28;845;-47
2021/10/22 08:52:29;;;;;;;;;;;14.50;99.90;;;;;;4981138;28;751;-47
2021/10/22 08:54:57;;;;;;;;;;;14.40;99.90;;;;;;4983903;28;806;-47
2021/10/22 08:57:25;;;;;;;;;;;14.40;99.90;;;;;;4970904;28;930;-47
2021/10/22 08:59:55;;;;;;;;;;;14.40;99.90;;;;;;4981562;28;730;-47
2021/10/22 09:02:22;;;;;;;;;;;14.40;99.90;;;;;;4981258;28;810;-47
2021/10/22 09:04:48;;;;;;;;;;;14.30;99.90;;;;;;4981022;28;1903;-47
2021/10/22 09:07:20;;;;;;;;;;;14.30;99.90;;;;;;4980846;28;848;-47
2021/10/22 09:09:46;;;;;;;;;;;14.30;99.90;;;;;;4981038;28;1022;-47
2021/10/22 09:12:13;;;;;;;;;;;14.30;99.90;;;;;;4987122;28;1100;-47
2021/10/22 09:14:56;;;;;;;;;;;14.40;99.90;;;;;;5000206;28;876;-47
2021/10/22 09:17:33;;;;;;;;;;;14.40;99.90;;;;;;4999033;28;863;-47
2021/10/22 09:20:00;;;;;;;;;;;14.50;99.90;;;;;;5000403;28;877;-47
2021/10/22 09:22:44;;;;;;;;;;;14.50;99.90;;;;;;5000021;28;861;-47
2021/10/22 09:25:11;;;;;;;;;;;14.60;99.90;;;;;;4999825;28;1954;-47
2021/10/22 09:27:41;;;;;;;;;;;14.80;99.90;;;;;;5000371;28;885;-47
2021/10/22 09:30:26;;;;;;;;;;;14.90;99.90;;;;;;5000154;28;978;-47
2021/10/22 09:32:52;;;;;;;;;;;14.90;99.90;;;;;;4998706;28;1209;-47
2021/10/22 09:35:39;;;;;;;;;;;14.90;99.90;;;;;;4998635;28;962;-47
2021/10/22 09:38:17;;;;;;;;;;;14.80;99.90;;;;;;4998986;28;1866;-47
2021/10/22 09:40:47;;;;;;;;;;;14.80;99.90;;;;;;4988864;28;885;-47
2021/10/22 09:43:15;;;;;;;;;;;14.80;99.90;;;;;;4980183;28;822;-48
2021/10/22 09:45:40;;;;;;;;;;;14.80;99.90;;;;;;4980096;28;1969;-47
2021/10/22 09:48:23;;;;;;;;;;;14.80;99.90;;;;;;4979936;28;861;-47
2021/10/22 09:50:49;;;;;;;;;;;14.80;99.90;;;;;;4972995;28;1252;-47
2021/10/22 09:53:34;;;;;;;;;;;14.80;99.90;;;;;;4960825;28;899;-47
2021/10/22 09:56:08;;;;;;;;;;;14.80;99.90;;;;;;4960990;28;866;-47
2021/10/22 09:58:36;;;;;;;;;;;14.70;99.90;;;;;;4961201;28;687;-48
2021/10/22 10:01:09;;;;;;;;;;;14.70;99.90;;;;;;4960190;28;893;-48
2021/10/22 10:03:39;;;;;;;;;;;14.70;99.90;;;;;;4960157;29;1903;-47
2021/10/22 10:06:07;;;;;;;;;;;14.70;99.90;;;;;;4960927;28;992;-47
2021/10/22 10:08:38;;;;;;;;;;;14.70;99.90;;;;;;4960742;28;853;-48
2021/10/22 10:11:06;;;;;;;;;;;14.70;99.90;;;;;;4973545;28;1401;-47
2021/10/22 10:13:34;;;;;;;;;;;14.70;99.90;;;;;;4996580;28;1228;-47
2021/10/22 10:16:04;;;;;;;;;;;14.70;99.90;;;;;;4999323;28;917;-47
2021/10/22 10:18:35;;;;;;;;;;;14.70;99.90;;;;;;4999193;28;1084;-47
2021/10/22 10:21:03;;;;;;;;;;;14.70;99.90;;;;;;4998601;28;909;-47
2021/10/22 10:23:31;;;;;;;;;;;14.60;99.90;;;;;;4998816;28;896;-47
2021/10/22 10:26:20;;;;;;;;;;;14.70;99.90;;;;;;4998868;28;853;-47
2021/10/22 10:28:46;;;;;;;;;;;14.70;99.90;;;;;;4998781;28;1287;-47
2021/10/22 10:31:29;;;;;;;;;;;14.60;99.90;;;;;;4998497;28;869;-47
2021/10/22 10:33:55;;;;;;;;;;;14.60;99.90;;;;;;4998708;28;988;-47
2021/10/22 10:36:40;;;;;;;;;;;14.60;99.90;;;;;;4997593;28;1027;-47
2021/10/22 10:39:07;;;;;;;;;;;14.60;99.90;;;;;;4998698;28;761;-47
2021/10/22 10:41:34;;;;;;;;;;;14.60;99.90;;;;;;4981309;28;860;-47
2021/10/22 10:44:19;;;;;;;;;;;14.60;99.90;;;;;;4979260;28;1963;-47
2021/10/22 10:46:45;;;;;;;;;;;14.60;99.90;;;;;;4978887;28;837;-47
2021/10/22 10:49:30;;;;;;;;;;;14.70;99.90;;;;;;4979473;28;861;-47
2021/10/22 10:51:56;;;;;;;;;;;14.70;99.90;;;;;;4979554;28;643;-47
2021/10/22 10:54:28;;;;;;;;;;;14.70;99.90;;;;;;4977848;28;864;-47
2021/10/22 10:56:54;;;;;;;;;;;14.80;99.90;;;;;;4978862;28;925;-47
2021/10/22 10:59:40;;;;;;;;;;;14.80;99.90;;;;;;4979081;28;871;-49
2021/10/22 11:02:07;;;;;;;;;;;14.70;99.90;;;;;;4978736;28;1840;-47
2021/10/22 11:04:45;;;;;;;;;;;14.70;99.90;;;;;;4979153;28;1967;-47
2021/10/22 11:07:30;;;;;;;;;;;14.70;99.90;;;;;;4978871;28;945;-47
2021/10/22 11:09:57;;;;;;;;;;;14.70;99.90;;;;;;4973775;28;965;-47
2021/10/22 11:12:23;;;;;;;;;;;14.60;99.90;;;;;;4974049;28;1123;-47
2021/10/22 11:14:56;;;;;;;;;;;14.60;99.90;;;;;;4998017;28;884;-47
2021/10/22 11:17:28;;;;;;;;;;;14.60;99.90;;;;;;4981519;28;960;-47
2021/10/22 11:19:57;;;;;;;;;;;14.60;99.90;;;;;;4997786;28;873;-47
2021/10/22 11:22:26;;;;;;;;;;;14.60;99.90;;;;;;4998012;28;825;-47
2021/10/22 11:24:52;;;;;;;;;;;14.60;99.90;;;;;;4997563;28;1910;-47
2021/10/22 11:27:21;;;;;;;;;;;14.50;99.90;;;;;;4997146;28;1013;-47
2021/10/22 11:29:49;;;;;;;;;;;14.50;99.90;;;;;;4996827;28;891;-47
2021/10/22 11:32:19;;;;;;;;;;;14.50;99.90;;;;;;4997715;28;889;-47
2021/10/22 11:34:53;;;;;;;;;;;14.50;99.90;;;;;;4997677;28;762;-47
2021/10/22 11:37:21;;;;;;;;;;;14.50;99.90;;;;;;4997746;28;1024;-47
2021/10/22 11:39:53;;;;;;;;;;;14.50;99.90;;;;;;4993450;28;841;-47
2021/10/22 11:42:38;;;;;;;;;;;14.40;99.90;;;;;;4978334;28;735;-47
2021/10/22 11:45:10;;;;;;;;;;;14.40;99.90;;;;;;4978240;28;1898;-47
2021/10/22 11:47:44;;;;;;;;;;;14.40;99.90;;;;;;4978041;28;1031;-47
2021/10/22 11:50:26;;;;;;;;;;;14.40;99.90;;;;;;4977916;28;935;-47
2021/10/22 11:52:55;;;;;;;;;;;14.40;99.90;;;;;;4978424;28;940;-47
2021/10/22 11:55:22;;;;;;;;;;;14.40;99.90;;;;;;4977935;28;794;-47
2021/10/22 11:57:50;;;;;;;;;;;14.40;99.90;;;;;;4969478;28;1283;-47
2021/10/22 12:00:18;;;;;;;;;;;14.40;99.90;;;;;;4959221;28;964;-47
2021/10/22 12:02:45;;;;;;;;;;;14.40;99.90;;;;;;4973116;28;1002;-47
2021/10/22 12:05:12;;;;;;;;;;;14.40;99.90;;;;;;4973278;28;1969;-47
2021/10/22 12:07:39;;;;;;;;;;;14.40;99.90;;;;;;4958555;28;1010;-47
2021/10/22 12:10:06;;;;;;;;;;;14.40;99.90;;;;;;4963931;28;818;-47
2021/10/22 12:12:36;;;;;;;;;;;14.40;99.90;;;;;;4986592;28;1121;-47
2021/10/22 12:15:03;;;;;;;;;;;14.40;99.90;;;;;;4997000;28;862;-47
2021/10/22 12:17:29;;;;;;;;;;;14.40;99.90;;;;;;4996858;28;889;-47
2021/10/22 12:20:01;;;;;;;;;;;14.40;99.90;;;;;;4997171;28;920;-47
2021/10/22 12:22:29;;;;;;;;;;;14.30;99.90;;;;;;4997103;28;806;-47
2021/10/22 12:24:56;;;;;;;;;;;14.40;99.90;;;;;;4996385;28;1977;-47
2021/10/22 12:27:27;;;;;;;;;;;14.40;99.90;;;;;;4997334;28;1323;-47
2021/10/22 12:29:59;;;;;;;;;;;14.40;99.90;;;;;;4996925;28;856;-47
2021/10/22 12:32:30;;;;;;;;;;;14.40;99.90;;;;;;4996960;28;1214;-47
2021/10/22 12:34:56;;;;;;;;;;;14.30;99.90;;;;;;4997069;28;784;-47
2021/10/22 12:37:32;;;;;;;;;;;14.30;99.90;;;;;;4996716;28;870;-47
2021/10/22 12:39:58;;;;;;;;;;;14.40;99.90;;;;;;4992354;28;1024;-47
2021/10/22 12:42:27;;;;;;;;;;;14.40;99.90;;;;;;4977519;28;842;-47
2021/10/22 12:45:11;;;;;;;;;;;14.40;99.90;;;;;;4977373;28;1910;-47
2021/10/22 12:47:38;;;;;;;;;;;14.40;99.90;;;;;;4977391;28;931;-47
2021/10/22 12:50:04;;;;;;;;;;;14.40;99.90;;;;;;4977159;28;791;-47
2021/10/22 12:52:31;;;;;;;;;;;14.40;99.90;;;;;;4977213;28;886;-47
2021/10/22 12:54:57;;;;;;;;;;;14.40;99.90;;;;;;4977290;28;773;-47
2021/10/22 12:57:25;;;;;;;;;;;14.40;99.90;;;;;;4977166;28;751;-47
2021/10/22 13:00:16;;;;;;;;;;;14.40;99.90;;;;;;4977378;28;851;-48
2021/10/22 13:02:42;;;;;;;;;;;14.40;99.90;;;;;;4975792;28;953;-47
2021/10/22 13:05:11;;;;;;;;;;;14.40;99.90;;;;;;4977037;28;1911;-47
2021/10/22 13:07:53;;;;;;;;;;;14.40;99.90;;;;;;4977489;28;974;-47
2021/10/22 13:21:09;;;;;;;;;;;14.40;99.90;;;;;;4996677;28;830;-47
2021/10/22 13:23:35;;;;;;;;;;;14.40;99.90;;;;;;4995365;28;1034;-47
2021/10/22 13:26:02;;;;;;;;;;;14.40;99.90;;;;;;4996646;28;1965;-47
2021/10/22 13:28:32;;;;;;;;;;;14.40;99.90;;;;;;4996798;28;832;-47
2021/10/22 13:31:07;;;;;;;;;;;14.40;99.90;;;;;;4996323;28;843;-47
2021/10/22 13:33:34;;;;;;;;;;;14.40;99.90;;;;;;4996562;28;828;-47
2021/10/22 13:36:01;;;;;;;;;;;14.40;99.90;;;;;;4997312;28;1020;-47
2021/10/22 13:38:28;;;;;;;;;;;14.40;99.90;;;;;;5000097;28;911;-47
2021/10/22 13:40:59;;;;;;;;;;;14.40;99.90;;;;;;4987814;28;881;-47
2021/10/22 13:43:27;;;;;;;;;;;14.40;99.90;;;;;;4980554;28;755;-47
2021/10/22 13:45:54;;;;;;;;;;;14.40;99.90;;;;;;4980551;28;1974;-47
2021/10/22 13:48:21;;;;;;;;;;;14.30;99.90;;;;;;4978883;28;1077;-47
2021/10/22 13:50:48;;;;;;;;;;;14.30;99.90;;;;;;4980359;28;743;-47
2021/10/22 13:53:21;;;;;;;;;;;14.30;99.90;;;;;;4978978;28;955;-47
2021/10/22 13:55:48;;;;;;;;;;;14.30;99.90;;;;;;4981524;28;1344;-47
2021/10/22 13:58:14;;;;;;;;;;;14.30;99.90;;;;;;4960642;28;865;-47
2021/10/22 14:00:40;;;;;;;;;;;14.30;99.90;;;;;;4975415;28;1166;-47
2021/10/22 14:03:06;;;;;;;;;;;14.30;99.90;;;;;;4974438;28;1423;-47
2021/10/22 14:05:32;;;;;;;;;;;14.30;99.90;;;;;;4980653;28;1976;-47
2021/10/22 14:07:59;;;;;;;;;;;14.20;99.90;;;;;;4979817;28;863;-47
2021/10/22 14:10:27;;;;;;;;;;;14.30;99.90;;;;;;4988545;28;1141;-47
2021/10/22 14:31:32;;;;;;;;;;;14.10;99.90;;;;;;4998935;28;832;-47
2021/10/22 14:34:00;;;;;;;;;;;14.00;99.90;;;;;;4998637;28;900;-47
2021/10/22 14:36:27;;;;;;;;;;;14.10;99.90;;;;;;4999000;28;829;-47
2021/10/22 14:38:55;;;;;;;;;;;14.00;99.90;;;;;;4998565;28;809;-47
2021/10/22 14:41:22;;;;;;;;;;;14.00;99.90;;;;;;4966138;28;916;-47
2021/10/22 14:43:51;;;;;;;;;;;14.00;99.90;;;;;;4958683;29;1057;-47
2021/10/22 14:46:27;;;;;;;;;;;14.00;99.90;;;;;;4959382;28;1903;-47
2021/10/22 14:51:43;;;;;;;;;;;13.90;99.90;;;;;;4959680;28;1280;-47
2021/10/22 14:54:14;;;;;;;;;;;14.00;99.90;;;;;;4959746;28;935;-47
2021/10/22 14:56:40;;;;;;;;;;;14.00;99.90;;;;;;4959859;29;835;-47
2021/10/22 14:59:09;;;;;;;;;;;13.90;99.90;;;;;;4993264;28;1209;-47
2021/10/22 15:01:38;;;;;;;;;;;13.90;99.90;;;;;;4998975;28;1186;-47
2021/10/22 15:04:07;;;;;;;;;;;13.90;99.90;;;;;;4998315;28;1125;-47
2021/10/22 15:06:36;;;;;;;;;;;13.90;99.90;;;;;;4997926;28;1902;-47
2021/10/22 15:09:03;;;;;;;;;;;13.90;99.90;;;;;;4997816;28;1027;-48
2021/10/22 15:11:31;;;;;;;;;;;13.90;99.90;;;;;;4980842;28;1190;-47
2021/10/22 15:14:00;;;;;;;;;;;13.90;99.90;;;;;;4978579;28;853;-47
2021/10/22 15:16:27;;;;;;;;;;;13.90;99.90;;;;;;4978822;28;989;-47
2021/10/22 15:18:53;;;;;;;;;;;13.90;99.90;;;;;;4978901;28;956;-47
2021/10/22 15:21:19;;;;;;;;;;;13.90;99.90;;;;;;4977304;28;962;-47
2021/10/22 15:23:47;;;;;;;;;;;13.90;99.90;;;;;;4978603;28;778;-47